sensor_id;sensor_type;location;lat;lon;timestamp;pressure;altitude;pressure_sealevel;temperature;humidity
65905;BME280;56275;49.802;24.020;2022-11-20T09:04:52;96905.53;;;20.35;49.03
65905;BME280;56275;49.802;24.020;2022-11-20T09:07:45;96904.38;;;20.48;49.13
65905;BME280;56275;49.802;24.020;2022-11-20T09:10:36;96914.63;;;20.60;49.07
65905;BME280;56275;49.802;24.020;2022-11-20T09:13:32;96903.81;;;20.71;48.83
65905;BME280;56275;49.802;24.020;2022-11-20T09:16:23;96895.69;;;20.80;48.90
65905;BME280;56275;49.802;24.020;2022-11-20T09:19:15;96902.41;;;20.92;49.12
65905;BME280;56275;49.802;24.020;2022-11-20T09:22:06;96918.06;;;20.99;49.40
65905;BME280;56275;49.802;24.020;2022-11-20T09:24:58;96895.03;;;21.05;49.65
65905;BME280;56275;49.802;24.020;2022-11-20T09:27:55;96915.09;;;21.12;49.62
65905;BME280;56275;49.802;24.020;2022-11-20T09:30:47;96912.31;;;21.18;49.34
65905;BME280;56275;49.802;24.020;2022-11-20T09:33:39;96916.66;;;21.20;49.48
65905;BME280;56275;49.802;24.020;2022-11-20T09:36:30;96913.03;;;21.24;49.42
65905;BME280;56275;49.802;24.020;2022-11-20T09:39:20;96908.41;;;21.34;49.39
65905;BME280;56275;49.802;24.020;2022-11-20T09:42:22;96882.84;;;21.35;49.40
65905;BME280;56275;49.802;24.020;2022-11-20T09:45:37;96885.56;;;21.32;49.23
65905;BME280;56275;49.802;24.020;2022-11-20T09:54:39;96902.22;;;21.35;49.13
65905;BME280;56275;49.802;24.020;2022-11-20T09:57:36;96908.41;;;21.34;49.08
65905;BME280;56275;49.802;24.020;2022-11-20T10:00:28;96900.56;;;21.31;49.12
65905;BME280;56275;49.802;24.020;2022-11-20T10:03:37;96905.78;;;21.33;49.17
65905;BME280;56275;49.802;24.020;2022-11-20T10:06:51;96904.97;;;21.31;49.15
65905;BME280;56275;49.802;24.020;2022-11-20T10:09:52;96899.69;;;21.31;48.81
65905;BME280;56275;49.802;24.020;2022-11-20T10:16:35;96893.44;;;21.33;48.75
65905;BME280;56275;49.802;24.020;2022-11-20T10:25:39;96899.16;;;21.50;48.85
65905;BME280;56275;49.802;24.020;2022-11-20T10:31:59;96874.41;;;21.53;49.39
65905;BME280;56275;49.802;24.020;2022-11-20T10:41:32;96842.69;;;21.53;49.07
65905;BME280;56275;49.802;24.020;2022-11-20T10:44:30;96836.28;;;21.62;49.23
65905;BME280;56275;49.802;24.020;2022-11-20T10:47:40;96852.09;;;21.63;49.74
65905;BME280;56275;49.802;24.020;2022-11-20T10:50:31;96854.63;;;21.68;50.22
65905;BME280;56275;49.802;24.020;2022-11-20T10:59:47;96866.34;;;21.58;51.06
65905;BME280;56275;49.802;24.020;2022-11-20T11:02:48;96860.94;;;21.62;51.17
65905;BME280;56275;49.802;24.020;2022-11-20T11:05:54;96860.84;;;21.65;51.01
65905;BME280;56275;49.802;24.020;2022-11-20T11:08:51;96855.66;;;21.62;50.83
65905;BME280;56275;49.802;24.020;2022-11-20T11:11:44;96867.16;;;21.61;50.98
65905;BME280;56275;49.802;24.020;2022-11-20T11:14:49;96851.22;;;21.63;50.73
65905;BME280;56275;49.802;24.020;2022-11-20T11:17:47;96825.72;;;21.62;50.73
65905;BME280;56275;49.802;24.020;2022-11-20T11:20:39;96823.06;;;21.62;50.73
65905;BME280;56275;49.802;24.020;2022-11-20T11:23:42;96821.31;;;21.61;50.66
65905;BME280;56275;49.802;24.020;2022-11-20T11:26:34;96830.13;;;21.61;50.32
65905;BME280;56275;49.802;24.020;2022-11-20T11:29:26;96826.69;;;21.58;50.45
65905;BME280;56275;49.802;24.020;2022-11-20T11:32:21;96838.19;;;21.57;50.38
65905;BME280;56275;49.802;24.020;2022-11-20T11:35:25;96860.25;;;21.56;50.21
65905;BME280;56275;49.802;24.020;2022-11-20T11:38:28;96833.81;;;21.56;50.21
65905;BME280;56275;49.802;24.020;2022-11-20T11:41:28;96834.75;;;21.53;50.13
65905;BME280;56275;49.802;24.020;2022-11-20T11:50:32;96814.53;;;21.52;49.69
65905;BME280;56275;49.802;24.020;2022-11-20T11:53:26;96824.16;;;21.55;49.69
65905;BME280;56275;49.802;24.020;2022-11-20T11:56:20;96817.13;;;21.53;49.62
65905;BME280;56275;49.802;24.020;2022-11-20T11:59:17;96810.97;;;21.53;49.42
65905;BME280;56275;49.802;24.020;2022-11-20T12:02:31;96810.09;;;21.52;49.54
65905;BME280;56275;49.802;24.020;2022-11-20T12:05:39;96811.94;;;21.50;49.42
65905;BME280;56275;49.802;24.020;2022-11-20T12:11:53;96803.00;;;21.55;49.06
65905;BME280;56275;49.802;24.020;2022-11-20T12:14:47;96813.53;;;21.56;49.14
65905;BME280;56275;49.802;24.020;2022-11-20T12:17:41;96816.91;;;21.61;49.06
65905;BME280;56275;49.802;24.020;2022-11-20T12:20:40;96810.72;;;21.61;49.08
65905;BME280;56275;49.802;24.020;2022-11-20T12:30:09;96777.28;;;21.60;49.02
65905;BME280;56275;49.802;24.020;2022-11-20T12:39:30;96768.53;;;21.58;49.18
65905;BME280;56275;49.802;24.020;2022-11-20T12:49:25;96762.34;;;21.59;49.02
65905;BME280;56275;49.802;24.020;2022-11-20T12:52:38;96757.97;;;21.58;49.13
65905;BME280;56275;49.802;24.020;2022-11-20T13:05:21;96778.06;;;21.63;49.04
65905;BME280;56275;49.802;24.020;2022-11-20T13:08:24;96774.63;;;21.61;49.11
65905;BME280;56275;49.802;24.020;2022-11-20T13:17:31;96756.97;;;21.62;49.20
65905;BME280;56275;49.802;24.020;2022-11-20T13:20:25;96760.50;;;21.61;49.18
65905;BME280;56275;49.802;24.020;2022-11-20T13:23:27;96771.94;;;21.63;49.14
65905;BME280;56275;49.802;24.020;2022-11-20T13:26:25;96773.72;;;21.61;49.05
65905;BME280;56275;49.802;24.020;2022-11-20T13:29:19;96777.28;;;21.60;48.79
65905;BME280;56275;49.802;24.020;2022-11-20T13:32:20;96777.34;;;21.58;48.90
65905;BME280;56275;49.802;24.020;2022-11-20T13:35:12;96782.69;;;21.57;48.81
65905;BME280;56275;49.802;24.020;2022-11-20T13:38:15;96775.63;;;21.57;48.85
65905;BME280;56275;49.802;24.020;2022-11-20T13:41:08;96787.06;;;21.58;49.15
65905;BME280;56275;49.802;24.020;2022-11-20T13:44:38;96785.97;;;21.65;48.98
65905;BME280;56275;49.802;24.020;2022-11-20T13:47:30;96784.78;;;21.75;49.05
65905;BME280;56275;49.802;24.020;2022-11-20T13:50:37;96789.22;;;21.74;49.12
65905;BME280;56275;49.802;24.020;2022-11-20T13:53:36;96775.78;;;21.80;48.96
65905;BME280;56275;49.802;24.020;2022-11-20T13:59:56;96770.66;;;21.76;49.53
65905;BME280;56275;49.802;24.020;2022-11-20T14:03:25;96775.75;;;21.82;49.58
65905;BME280;56275;49.802;24.020;2022-11-20T14:09:29;96747.41;;;21.86;50.98
65905;BME280;56275;49.802;24.020;2022-11-20T14:12:28;96729.50;;;21.95;50.99
65905;BME280;56275;49.802;24.020;2022-11-20T14:15:31;96739.84;;;22.01;52.09
65905;BME280;56275;49.802;24.020;2022-11-20T14:18:25;96751.22;;;22.05;52.32
65905;BME280;56275;49.802;24.020;2022-11-20T14:21:28;96729.94;;;22.10;53.06
65905;BME280;56275;49.802;24.020;2022-11-20T14:24:24;96722.88;;;22.10;53.15
65905;BME280;56275;49.802;24.020;2022-11-20T14:27:19;96727.03;;;22.17;53.39
65905;BME280;56275;49.802;24.020;2022-11-20T14:30:16;96735.03;;;22.16;53.74
65905;BME280;56275;49.802;24.020;2022-11-20T14:33:11;96724.34;;;22.19;54.12
65905;BME280;56275;49.802;24.020;2022-11-20T14:36:04;96727.97;;;22.16;54.80
65905;BME280;56275;49.802;24.020;2022-11-20T14:38:56;96746.31;;;22.21;55.10
65905;BME280;56275;49.802;24.020;2022-11-20T14:41:54;96750.72;;;22.22;55.18
65905;BME280;56275;49.802;24.020;2022-11-20T14:44:46;96761.13;;;22.26;55.17
65905;BME280;56275;49.802;24.020;2022-11-20T14:47:38;96762.09;;;22.24;55.85
65905;BME280;56275;49.802;24.020;2022-11-20T14:50:30;96769.78;;;22.31;55.65
65905;BME280;56275;49.802;24.020;2022-11-20T14:53:25;96771.63;;;22.29;56.17
65905;BME280;56275;49.802;24.020;2022-11-20T14:56:23;96769.19;;;22.23;56.45
65905;BME280;56275;49.802;24.020;2022-11-20T14:59:27;96774.41;;;22.25;56.83
65905;BME280;56275;49.802;24.020;2022-11-20T15:02:18;96779.81;;;22.22;56.90
65905;BME280;56275;49.802;24.020;2022-11-20T15:05:10;96794.63;;;22.27;56.37
65905;BME280;56275;49.802;24.020;2022-11-20T15:08:08;96799.97;;;22.26;56.42
65905;BME280;56275;49.802;24.020;2022-11-20T15:11:00;96798.28;;;22.23;56.59
65905;BME280;56275;49.802;24.020;2022-11-20T15:13:52;96815.09;;;22.21;56.58
65905;BME280;56275;49.802;24.020;2022-11-20T15:16:44;96811.72;;;22.17;56.47
65905;BME280;56275;49.802;24.020;2022-11-20T15:19:36;96809.94;;;22.18;56.45
65905;BME280;56275;49.802;24.020;2022-11-20T15:22:28;96797.63;;;22.17;56.61
65905;BME280;56275;49.802;24.020;2022-11-20T15:25:19;96800.25;;;22.17;56.81
65905;BME280;56275;49.802;24.020;2022-11-20T15:28:18;96801.59;;;22.30;56.12
65905;BME280;56275;49.802;24.020;2022-11-20T15:31:12;96793.50;;;22.34;55.95
65905;BME280;56275;49.802;24.020;2022-11-20T15:34:08;96776.00;;;22.30;56.12
65905;BME280;56275;49.802;24.020;2022-11-20T15:37:00;96776.09;;;22.27;55.93
65905;BME280;56275;49.802;24.020;2022-11-20T15:39:51;96768.00;;;22.32;55.43
65905;BME280;56275;49.802;24.020;2022-11-20T15:42:42;96760.19;;;22.29;55.56
65905;BME280;56275;49.802;24.020;2022-11-20T15:46:00;96760.22;;;22.27;55.92
65905;BME280;56275;49.802;24.020;2022-11-20T15:48:55;96770.84;;;22.26;55.51
65905;BME280;56275;49.802;24.020;2022-11-20T15:51:48;96778.84;;;22.24;55.58
65905;BME280;56275;49.802;24.020;2022-11-20T15:54:40;96777.13;;;22.23;55.36
65905;BME280;56275;49.802;24.020;2022-11-20T15:57:31;96786.72;;;22.26;55.16
65905;BME280;56275;49.802;24.020;2022-11-20T16:00:23;96784.94;;;22.26;55.16
65905;BME280;56275;49.802;24.020;2022-11-20T16:03:16;96778.84;;;22.24;54.94
65905;BME280;56275;49.802;24.020;2022-11-20T16:06:07;96786.84;;;22.23;55.05
65905;BME280;56275;49.802;24.020;2022-11-20T16:08:58;96788.63;;;22.22;54.91
65905;BME280;56275;49.802;24.020;2022-11-20T16:11:49;96787.72;;;22.23;54.62
65905;BME280;56275;49.802;24.020;2022-11-20T16:14:40;96772.75;;;22.22;54.58
65905;BME280;56275;49.802;24.020;2022-11-20T16:17:50;96761.31;;;22.22;54.44
65905;BME280;56275;49.802;24.020;2022-11-20T16:20:43;96761.31;;;22.22;54.24
65905;BME280;56275;49.802;24.020;2022-11-20T16:23:34;96761.25;;;22.23;54.34
65905;BME280;56275;49.802;24.020;2022-11-20T16:26:25;96771.72;;;22.26;54.00
65905;BME280;56275;49.802;24.020;2022-11-20T16:29:16;96763.88;;;22.23;54.03
65905;BME280;56275;49.802;24.020;2022-11-20T16:32:07;96762.09;;;22.24;53.79
65905;BME280;56275;49.802;24.020;2022-11-20T16:35:00;96777.06;;;22.25;53.86
65905;BME280;56275;49.802;24.020;2022-11-20T16:37:52;96780.38;;;22.31;53.70
65905;BME280;56275;49.802;24.020;2022-11-20T16:40:44;96790.19;;;22.28;53.64
65905;BME280;56275;49.802;24.020;2022-11-20T16:43:35;96781.19;;;22.33;53.78
65905;BME280;56275;49.802;24.020;2022-11-20T16:46:30;96774.28;;;22.29;53.52
65905;BME280;56275;49.802;24.020;2022-11-20T16:49:22;96781.31;;;22.30;53.54
65905;BME280;56275;49.802;24.020;2022-11-20T16:52:15;96782.22;;;22.29;53.54
65905;BME280;56275;49.802;24.020;2022-11-20T16:55:06;96797.22;;;22.29;53.43
65905;BME280;56275;49.802;24.020;2022-11-20T16:57:58;96780.31;;;22.33;53.21
65905;BME280;56275;49.802;24.020;2022-11-20T17:00:50;96779.50;;;22.31;53.21
65905;BME280;56275;49.802;24.020;2022-11-20T17:03:43;96767.19;;;22.30;53.28
65905;BME280;56275;49.802;24.020;2022-11-20T17:06:39;96753.09;;;22.29;52.99
65905;BME280;56275;49.802;24.020;2022-11-20T17:09:31;96753.13;;;22.28;53.14
65905;BME280;56275;49.802;24.020;2022-11-20T17:12:22;96766.16;;;22.34;53.21
65905;BME280;56275;49.802;24.020;2022-11-20T17:15:13;96762.50;;;22.38;52.90
65905;BME280;56275;49.802;24.020;2022-11-20T17:18:05;96763.25;;;22.43;52.85
65905;BME280;56275;49.802;24.020;2022-11-20T17:20:57;96759.66;;;22.44;52.81
65905;BME280;56275;49.802;24.020;2022-11-20T17:23:50;96764.16;;;22.42;52.76
65905;BME280;56275;49.802;24.020;2022-11-20T17:26:43;96768.63;;;22.40;52.64
65905;BME280;56275;49.802;24.020;2022-11-20T17:29:35;96765.03;;;22.43;52.64
65905;BME280;56275;49.802;24.020;2022-11-20T17:32:26;96759.59;;;22.46;52.95
65905;BME280;56275;49.802;24.020;2022-11-20T17:35:18;96753.34;;;22.48;53.01
65905;BME280;56275;49.802;24.020;2022-11-20T17:38:09;96754.38;;;22.44;53.30
65905;BME280;56275;49.802;24.020;2022-11-20T17:41:11;96763.78;;;22.53;53.92
65905;BME280;56275;49.802;24.020;2022-11-20T17:44:03;96768.00;;;22.58;53.82
65905;BME280;56275;49.802;24.020;2022-11-20T17:46:55;96781.13;;;22.61;54.45
65905;BME280;56275;49.802;24.020;2022-11-20T17:49:46;96777.59;;;22.63;54.51
65905;BME280;56275;49.802;24.020;2022-11-20T17:52:37;96779.41;;;22.60;54.55
65905;BME280;56275;49.802;24.020;2022-11-20T17:55:28;96780.44;;;22.56;55.14
65905;BME280;56275;49.802;24.020;2022-11-20T17:58:39;96769.88;;;22.55;55.39
65905;BME280;56275;49.802;24.020;2022-11-20T18:01:31;96769.00;;;22.54;55.15
65905;BME280;56275;49.802;24.020;2022-11-20T18:04:23;96754.84;;;22.55;55.27
65905;BME280;56275;49.802;24.020;2022-11-20T18:07:15;96744.97;;;22.60;55.54
65905;BME280;56275;49.802;24.020;2022-11-20T18:10:07;96731.88;;;22.57;55.74
65905;BME280;56275;49.802;24.020;2022-11-20T18:12:59;96724.00;;;22.54;55.68
65905;BME280;56275;49.802;24.020;2022-11-20T18:15:50;96715.22;;;22.54;56.00
65905;BME280;56275;49.802;24.020;2022-11-20T18:18:42;96714.41;;;22.52;56.07
65905;BME280;56275;49.802;24.020;2022-11-20T18:21:33;96710.03;;;22.51;56.11
65905;BME280;56275;49.802;24.020;2022-11-20T18:24:24;96715.38;;;22.49;56.31
65905;BME280;56275;49.802;24.020;2022-11-20T18:27:17;96715.38;;;22.49;56.35
65905;BME280;56275;49.802;24.020;2022-11-20T18:30:10;96726.84;;;22.50;56.40
65905;BME280;56275;49.802;24.020;2022-11-20T18:33:04;96727.78;;;22.47;56.13
65905;BME280;56275;49.802;24.020;2022-11-20T18:35:56;96740.16;;;22.47;56.12
65905;BME280;56275;49.802;24.020;2022-11-20T18:38:48;96747.16;;;22.49;56.06
65905;BME280;56275;49.802;24.020;2022-11-20T18:41:41;96755.97;;;22.48;55.79
65905;BME280;56275;49.802;24.020;2022-11-20T18:44:51;96746.44;;;22.44;55.97
65905;BME280;56275;49.802;24.020;2022-11-20T18:47:43;96741.13;;;22.44;55.88
65905;BME280;56275;49.802;24.020;2022-11-20T18:50:34;96739.44;;;22.42;55.81
65905;BME280;56275;49.802;24.020;2022-11-20T18:53:25;96750.16;;;22.39;55.82
65905;BME280;56275;49.802;24.020;2022-11-20T18:56:16;96751.06;;;22.38;55.75
65905;BME280;56275;49.802;24.020;2022-11-20T18:59:09;96748.41;;;22.38;55.71
65905;BME280;56275;49.802;24.020;2022-11-20T19:02:01;96753.81;;;22.34;55.59
65905;BME280;56275;49.802;24.020;2022-11-20T19:04:53;96758.16;;;22.37;55.60
65905;BME280;56275;49.802;24.020;2022-11-20T19:07:45;96755.63;;;22.32;55.40
65905;BME280;56275;49.802;24.020;2022-11-20T19:10:37;96752.13;;;22.32;55.47
65905;BME280;56275;49.802;24.020;2022-11-20T19:13:28;96742.47;;;22.31;55.13
65905;BME280;56275;49.802;24.020;2022-11-20T19:16:21;96751.31;;;22.30;55.06
65905;BME280;56275;49.802;24.020;2022-11-20T19:19:14;96754.88;;;22.29;55.31
65905;BME280;56275;49.802;24.020;2022-11-20T19:22:05;96761.91;;;22.30;55.11
65905;BME280;56275;49.802;24.020;2022-11-20T19:24:58;96753.19;;;22.26;54.83
65905;BME280;56275;49.802;24.020;2022-11-20T19:27:50;96759.28;;;22.28;54.88
65905;BME280;56275;49.802;24.020;2022-11-20T19:30:42;96762.66;;;22.33;54.75
65905;BME280;56275;49.802;24.020;2022-11-20T19:33:33;96755.69;;;22.31;54.57
65905;BME280;56275;49.802;24.020;2022-11-20T19:36:30;96761.84;;;22.31;54.62
65905;BME280;56275;49.802;24.020;2022-11-20T19:39:22;96764.59;;;22.28;54.58
65905;BME280;56275;49.802;24.020;2022-11-20T19:42:13;96761.13;;;22.26;54.44
65905;BME280;56275;49.802;24.020;2022-11-20T19:45:04;96762.91;;;22.26;54.51
65905;BME280;56275;49.802;24.020;2022-11-20T19:47:57;96757.75;;;22.23;54.49
65905;BME280;56275;49.802;24.020;2022-11-20T19:50:49;96752.44;;;22.23;54.39
65905;BME280;56275;49.802;24.020;2022-11-20T19:53:41;96751.59;;;22.22;54.27
65905;BME280;56275;49.802;24.020;2022-11-20T19:56:33;96747.16;;;22.23;54.32
65905;BME280;56275;49.802;24.020;2022-11-20T19:59:25;96748.75;;;22.27;54.11
65905;BME280;56275;49.802;24.020;2022-11-20T20:02:17;96750.53;;;22.26;54.25
65905;BME280;56275;49.802;24.020;2022-11-20T20:05:09;96754.13;;;22.25;54.02
65905;BME280;56275;49.802;24.020;2022-11-20T20:08:00;96753.38;;;22.22;54.10
65905;BME280;56275;49.802;24.020;2022-11-20T20:10:51;96755.19;;;22.20;54.04
65905;BME280;56275;49.802;24.020;2022-11-20T20:13:42;96757.00;;;22.18;54.03
65905;BME280;56275;49.802;24.020;2022-11-20T20:16:34;96755.22;;;22.18;53.85
65905;BME280;56275;49.802;24.020;2022-11-20T20:19:26;96772.09;;;22.16;54.07
65905;BME280;56275;49.802;24.020;2022-11-20T20:22:18;96759.75;;;22.15;54.02
65905;BME280;56275;49.802;24.020;2022-11-20T20:25:09;96757.16;;;22.13;53.79
65905;BME280;56275;49.802;24.020;2022-11-20T20:28:01;96757.09;;;22.15;53.86
65905;BME280;56275;49.802;24.020;2022-11-20T20:30:53;96756.16;;;22.17;53.48
65905;BME280;56275;49.802;24.020;2022-11-20T20:33:45;96755.28;;;22.17;53.44
65905;BME280;56275;49.802;24.020;2022-11-20T20:36:37;96766.72;;;22.17;53.58
65905;BME280;56275;49.802;24.020;2022-11-20T20:39:29;96762.44;;;22.13;53.17
65905;BME280;56275;49.802;24.020;2022-11-20T20:42:20;96747.59;;;22.09;53.21
65905;BME280;56275;49.802;24.020;2022-11-20T20:45:11;96748.50;;;22.06;53.32
65905;BME280;56275;49.802;24.020;2022-11-20T20:48:04;96765.34;;;22.04;53.21
65905;BME280;56275;49.802;24.020;2022-11-20T20:51:00;96770.66;;;22.04;53.09
65905;BME280;56275;49.802;24.020;2022-11-20T20:53:53;96760.13;;;22.02;52.84
65905;BME280;56275;49.802;24.020;2022-11-20T20:56:44;96749.56;;;22.01;52.94
65905;BME280;56275;49.802;24.020;2022-11-20T20:59:36;96749.56;;;22.01;52.88
65905;BME280;56275;49.802;24.020;2022-11-20T21:02:27;96761.13;;;21.98;52.78
65905;BME280;56275;49.802;24.020;2022-11-20T21:05:18;96759.44;;;21.96;52.82
65905;BME280;56275;49.802;24.020;2022-11-20T21:08:09;96763.81;;;21.97;52.44
65905;BME280;56275;49.802;24.020;2022-11-20T21:11:16;96771.75;;;21.97;52.44
65905;BME280;56275;49.802;24.020;2022-11-20T21:14:07;96768.25;;;21.96;52.21
65905;BME280;56275;49.802;24.020;2022-11-20T21:16:58;96762.13;;;21.94;52.21
65905;BME280;56275;49.802;24.020;2022-11-20T21:19:43;96756.13;;;21.89;52.03
65905;BME280;56275;49.802;24.020;2022-11-20T21:22:28;96751.59;;;21.93;52.22
65905;BME280;56275;49.802;24.020;2022-11-20T21:25:20;96754.25;;;21.93;51.89
65905;BME280;56275;49.802;24.020;2022-11-20T21:28:11;96764.88;;;21.91;51.87
65905;BME280;56275;49.802;24.020;2022-11-20T21:31:12;96768.50;;;21.89;51.92
65905;BME280;56275;49.802;24.020;2022-11-20T21:34:05;96762.28;;;21.90;51.93
65905;BME280;56275;49.802;24.020;2022-11-20T21:36:58;96767.63;;;21.88;51.72
65905;BME280;56275;49.802;24.020;2022-11-20T21:39:49;96761.44;;;21.88;51.63
65905;BME280;56275;49.802;24.020;2022-11-20T21:42:42;96757.06;;;21.88;51.53
65905;BME280;56275;49.802;24.020;2022-11-20T21:45:34;96751.91;;;21.84;51.67
65905;BME280;56275;49.802;24.020;2022-11-20T21:48:28;96756.31;;;21.83;51.35
65905;BME280;56275;49.802;24.020;2022-11-20T21:51:22;96759.88;;;21.82;51.43
65905;BME280;56275;49.802;24.020;2022-11-20T21:54:14;96748.38;;;21.83;51.12
65905;BME280;56275;49.802;24.020;2022-11-20T21:57:07;96750.16;;;21.83;51.19
65905;BME280;56275;49.802;24.020;2022-11-20T21:59:58;96746.66;;;21.82;51.19
65905;BME280;56275;49.802;24.020;2022-11-20T22:02:49;96745.56;;;21.88;51.03
65905;BME280;56275;49.802;24.020;2022-11-20T22:05:40;96746.47;;;21.88;51.11
65905;BME280;56275;49.802;24.020;2022-11-20T22:08:32;96748.94;;;21.93;51.04
65905;BME280;56275;49.802;24.020;2022-11-20T22:11:24;96750.69;;;21.94;50.96
65905;BME280;56275;49.802;24.020;2022-11-20T22:14:16;96751.53;;;21.94;50.91
65905;BME280;56275;49.802;24.020;2022-11-20T22:17:12;96744.53;;;21.93;50.72
65905;BME280;56275;49.802;24.020;2022-11-20T22:20:05;96752.28;;;21.99;50.74
65905;BME280;56275;49.802;24.020;2022-11-20T22:22:56;96743.59;;;21.96;50.75
65905;BME280;56275;49.802;24.020;2022-11-20T22:25:47;96752.38;;;21.96;50.70
65905;BME280;56275;49.802;24.020;2022-11-20T22:28:38;96738.31;;;21.94;50.73
65905;BME280;56275;49.802;24.020;2022-11-20T22:31:30;96753.31;;;21.95;50.75
65905;BME280;56275;49.802;24.020;2022-11-20T22:34:22;96754.09;;;21.97;50.53
65905;BME280;56275;49.802;24.020;2022-11-20T22:37:14;96752.28;;;21.99;50.61
65905;BME280;56275;49.802;24.020;2022-11-20T22:40:05;96754.09;;;21.97;50.51
65905;BME280;56275;49.802;24.020;2022-11-20T22:42:57;96739.97;;;21.98;50.42
65905;BME280;56275;49.802;24.020;2022-11-20T22:45:48;96754.97;;;21.98;50.59
65905;BME280;56275;49.802;24.020;2022-11-20T22:48:41;96753.13;;;22.00;50.38
65905;BME280;56275;49.802;24.020;2022-11-20T22:51:36;96761.94;;;22.00;50.60
65905;BME280;56275;49.802;24.020;2022-11-20T22:54:21;96767.22;;;22.00;50.39
65905;BME280;56275;49.802;24.020;2022-11-20T22:57:06;96767.22;;;22.00;50.22
65905;BME280;56275;49.802;24.020;2022-11-20T22:59:57;96775.22;;;21.99;50.24
65905;BME280;56275;49.802;24.020;2022-11-20T23:02:45;96764.56;;;22.00;50.31
65905;BME280;56275;49.802;24.020;2022-11-20T23:05:31;96754.84;;;22.01;50.01
65905;BME280;56275;49.802;24.020;2022-11-20T23:08:17;96753.97;;;22.02;50.15
65905;BME280;56275;49.802;24.020;2022-11-20T23:11:13;96743.34;;;22.03;50.01
65905;BME280;56275;49.802;24.020;2022-11-20T23:14:11;96751.31;;;22.02;50.12
65905;BME280;56275;49.802;24.020;2022-11-20T23:17:03;96739.03;;;21.99;50.10
65905;BME280;56275;49.802;24.020;2022-11-20T23:19:54;96733.66;;;22.02;49.94
65905;BME280;56275;49.802;24.020;2022-11-20T23:22:45;96731.88;;;22.03;50.17
65905;BME280;56275;49.802;24.020;2022-11-20T23:25:36;96731.84;;;22.04;49.85
65905;BME280;56275;49.802;24.020;2022-11-20T23:28:27;96727.47;;;22.03;49.99
65905;BME280;56275;49.802;24.020;2022-11-20T23:31:19;96725.63;;;22.05;49.87
65905;BME280;56275;49.802;24.020;2022-11-20T23:34:11;96721.19;;;22.06;49.72
65905;BME280;56275;49.802;24.020;2022-11-20T23:37:03;96708.94;;;22.03;49.84
65905;BME280;56275;49.802;24.020;2022-11-20T23:39:49;96715.91;;;22.06;49.94
65905;BME280;56275;49.802;24.020;2022-11-20T23:42:34;96707.16;;;22.04;49.94
65905;BME280;56275;49.802;24.020;2022-11-20T23:45:26;96706.25;;;22.05;50.06
65905;BME280;56275;49.802;24.020;2022-11-20T23:48:11;96701.78;;;22.09;49.81
65905;BME280;56275;49.802;24.020;2022-11-20T23:50:56;96707.06;;;22.09;49.82
65905;BME280;56275;49.802;24.020;2022-11-20T23:53:41;96706.13;;;22.08;49.62
65905;BME280;56275;49.802;24.020;2022-11-20T23:56:26;96702.63;;;22.07;49.72
65905;BME280;56275;49.802;24.020;2022-11-20T23:59:18;96711.41;;;22.08;49.53
